Time;durP1;ratioP1;P1;durP2;ratioP2;P2;SDS_P1;SDS_P2;PMS_P1;PMS_P2;Temp;Humidity;BMP_temperature;BMP_pressure;BME280_temperature;BME280_humidity;BME280_pressure;Samples;Min_cycle;Max_cycle;Signal;HPM_P1;HPM_P2
2023/01/13 00:01:23;;;;;;;5.05;3.42;;;1.70;99.90;;;;;;5012401;28;20076;-50
2023/01/13 00:03:49;;;;;;;3.55;3.22;;;1.70;99.90;;;;;;5012321;28;20029;-51
2023/01/13 00:06:20;;;;;;;6.60;3.50;;;1.60;99.90;;;;;;5012115;28;20381;-53
2023/01/13 00:08:50;;;;;;;3.85;3.42;;;1.60;99.90;;;;;;5012571;28;20105;-54
2023/01/13 00:11:16;;;;;;;4.05;3.65;;;1.50;99.90;;;;;;5027442;28;20029;-52
2023/01/13 00:13:42;;;;;;;3.60;3.30;;;1.50;99.90;;;;;;5012296;28;20032;-52
2023/01/13 00:16:11;;;;;;;5.32;3.88;;;1.50;99.90;;;;;;5012172;28;20117;-51
2023/01/13 00:18:37;;;;;;;3.65;3.35;;;1.50;99.90;;;;;;5012170;28;20026;-51
2023/01/13 00:21:11;;;;;;;5.78;3.55;;;1.40;99.90;;;;;;5015781;28;20026;-53
2023/01/13 00:23:36;;;;;;;4.35;3.80;;;1.40;99.90;;;;;;5016360;28;20402;-51
2023/01/13 00:26:05;;;;;;;5.70;3.92;;;1.40;99.90;;;;;;5016289;28;20072;-52
2023/01/13 00:28:31;;;;;;;5.20;3.58;;;1.30;99.90;;;;;;5016240;28;20100;-48
2023/01/13 00:31:07;;;;;;;6.43;3.40;;;1.30;99.90;;;;;;5016197;28;20041;-48
2023/01/13 00:33:33;;;;;;;3.85;3.28;;;1.20;99.90;;;;;;5016047;28;20101;-53
2023/01/13 00:36:00;;;;;;;5.78;4.00;;;1.20;99.90;;;;;;5016028;28;20037;-52
2023/01/13 00:38:26;;;;;;;5.45;3.13;;;1.30;99.90;;;;;;5016026;28;20026;-50
2023/01/13 00:41:00;;;;;;;4.68;3.92;;;1.30;99.90;;;;;;5015886;28;20025;-50
2023/01/13 00:43:28;;;;;;;4.10;3.72;;;1.20;99.90;;;;;;5015792;28;20034;-51
2023/01/13 00:45:54;;;;;;;6.20;3.70;;;1.20;99.90;;;;;;5015601;28;20049;-47
2023/01/13 00:48:21;;;;;;;4.97;3.75;;;1.10;99.90;;;;;;5015665;28;20025;-53
2023/01/13 00:50:57;;;;;;;3.60;3.30;;;1.20;99.90;;;;;;5015895;28;20018;-50
2023/01/13 00:53:23;;;;;;;4.85;3.95;;;1.20;99.90;;;;;;5015823;28;20026;-52
2023/01/13 00:55:49;;;;;;;5.38;3.67;;;1.30;99.90;;;;;;5015498;28;20057;-48
2023/01/13 00:58:15;;;;;;;3.95;3.65;;;1.40;99.90;;;;;;5015737;28;20057;-49
2023/01/13 01:00:41;;;;;;;6.05;3.70;;;1.40;99.90;;;;;;5015542;28;20037;-51
2023/01/13 01:03:11;;;;;;;5.78;3.60;;;1.50;99.90;;;;;;5015510;28;20026;-49
2023/01/13 01:05:38;;;;;;;5.97;3.65;;;1.40;99.90;;;;;;5015388;28;20041;-48
2023/01/13 01:08:04;;;;;;;11.88;3.38;;;1.40;99.90;;;;;;5015457;28;20042;-49
2023/01/13 01:10:30;;;;;;;6.47;3.47;;;1.40;99.90;;;;;;5015317;28;20036;-50
2023/01/13 01:12:55;;;;;;;4.18;3.70;;;1.40;99.90;;;;;;5030566;28;20404;-51
2023/01/13 01:15:21;;;;;;;3.78;3.00;;;1.50;99.90;;;;;;5014113;28;20033;-49
2023/01/13 01:17:47;;;;;;;6.82;4.00;;;1.50;99.90;;;;;;5015181;28;20037;-49
2023/01/13 01:20:12;;;;;;;6.13;3.35;;;1.50;99.90;;;;;;5015328;28;20022;-53
2023/01/13 01:22:38;;;;;;;5.80;3.67;;;1.50;99.90;;;;;;5015213;28;20131;-50
2023/01/13 01:25:04;;;;;;;3.72;3.42;;;1.60;99.90;;;;;;5015027;28;20084;-51
2023/01/13 01:27:30;;;;;;;3.53;3.22;;;1.70;99.90;;;;;;5030323;28;20029;-50
2023/01/13 01:29:55;;;;;;;5.18;3.30;;;1.70;99.90;;;;;;5015080;28;20461;-50
2023/01/13 01:32:21;;;;;;;5.93;3.92;;;1.80;99.90;;;;;;5014088;28;20478;-53
2023/01/13 01:34:46;;;;;;;5.93;3.33;;;1.80;99.90;;;;;;5015051;28;20053;-52
2023/01/13 01:37:12;;;;;;;3.58;3.25;;;1.70;99.90;;;;;;5030152;28;20029;-48
2023/01/13 01:39:38;;;;;;;3.40;3.10;;;1.70;99.90;;;;;;5014850;28;20645;-49
2023/01/13 01:45:13;;;;;;;9.63;3.30;;;1.70;99.90;;;;;;5014701;28;20515;-52
2023/01/13 01:47:40;;;;;;;3.50;3.20;;;1.60;99.90;;;;;;5009063;28;20677;-52
2023/01/13 01:50:07;;;;;;;3.78;3.40;;;1.60;99.90;;;;;;5014836;28;20400;-51
2023/01/13 01:52:38;;;;;;;4.15;3.53;;;1.50;99.90;;;;;;5034388;28;20075;-51
2023/01/13 01:55:18;;;;;;;3.15;2.90;;;1.50;99.90;;;;;;5034349;28;20057;-49
2023/01/13 01:58:01;;;;;;;3.03;2.80;;;1.50;99.90;;;;;;5033197;28;20437;-48
2023/01/13 02:00:28;;;;;;;4.20;3.75;;;1.40;99.90;;;;;;5034267;28;20036;-50
2023/01/13 02:02:54;;;;;;;3.60;3.28;;;1.40;99.90;;;;;;5033072;28;20644;-49
2023/01/13 02:05:21;;;;;;;5.88;3.65;;;1.30;99.90;;;;;;5032863;28;20457;-51
2023/01/13 02:07:51;;;;;;;4.70;3.40;;;1.30;99.90;;;;;;5034081;28;20451;-50
2023/01/13 02:10:20;;;;;;;3.83;2.92;;;1.20;99.90;;;;;;5034129;28;20025;-48
2023/01/13 02:12:47;;;;;;;3.80;3.35;;;1.30;99.90;;;;;;5034008;28;20021;-52
2023/01/13 02:15:41;;;;;;;5.07;2.78;;;1.30;99.90;;;;;;5033933;28;20104;-50
2023/01/13 02:18:30;;;;;;;4.22;3.83;;;1.30;99.90;;;;;;5017788;28;20034;-49
2023/01/13 02:21:01;;;;;;;5.85;3.38;;;1.20;99.90;;;;;;5033862;28;20038;-50
2023/01/13 02:27:07;;;;;;;3.00;2.80;;;1.20;99.90;;;;;;5033685;28;20072;-49
2023/01/13 02:32:37;;;;;;;3.75;3.47;;;1.10;99.90;;;;;;5033591;28;20040;-48
2023/01/13 02:35:05;;;;;;;;;;;1.20;99.90;;;;;;5034129;28;20059;-50
2023/01/13 02:37:36;;;;;;;4.25;3.42;;;1.20;99.90;;;;;;5033629;28;20012;-50
2023/01/13 02:40:15;;;;;;;3.72;3.42;;;1.30;99.90;;;;;;5033496;28;20022;-50
2023/01/13 02:45:43;;;;;;;4.40;3.53;;;1.30;99.90;;;;;;5033133;28;20075;-49
2023/01/13 02:48:12;;;;;;;6.10;3.70;;;1.40;99.90;;;;;;5033426;28;20029;-49
2023/01/13 02:50:52;;;;;;;3.28;3.00;;;1.40;99.90;;;;;;5033318;28;20029;-53
2023/01/13 02:53:33;;;;;;;6.03;3.08;;;1.40;99.90;;;;;;5033402;28;20079;-50
2023/01/13 02:56:02;;;;;;;4.60;3.65;;;1.30;99.90;;;;;;5033606;28;20031;-52
2023/01/13 02:58:31;;;;;;;4.18;3.88;;;1.30;99.90;;;;;;5033176;28;20052;-54
2023/01/13 03:00:57;;;;;;;4.75;3.25;;;1.30;99.90;;;;;;5033070;28;20515;-53
2023/01/13 03:03:23;;;;;;;3.97;3.45;;;1.20;99.90;;;;;;5033101;28;20057;-52
2023/01/13 03:06:00;;;;;;;5.35;3.60;;;1.20;99.90;;;;;;5032913;28;20422;-55
2023/01/13 03:08:45;;;;;;;8.07;3.47;;;1.20;99.90;;;;;;5033130;28;20113;-51
2023/01/13 03:11:13;;;;;;;6.07;3.17;;;1.10;99.90;;;;;;5032865;28;20059;-53
2023/01/13 03:13:47;;;;;;;3.90;3.47;;;1.10;99.90;;;;;;5032799;28;20021;-51
2023/01/13 03:16:37;;;;;;;3.28;3.05;;;1.10;99.90;;;;;;5031575;28;20068;-55
2023/01/13 03:19:31;;;;;;;21.17;4.20;;;1.10;99.90;;;;;;5032317;28;20473;-54
2023/01/13 03:22:06;;;;;;;3.78;3.03;;;1.20;99.90;;;;;;5032061;28;20029;-53
2023/01/13 03:25:03;;;;;;;5.30;3.17;;;1.10;99.90;;;;;;5032321;28;20040;-49
2023/01/13 03:28:10;;;;;;;4.35;3.30;;;1.10;99.90;;;;;;5028530;28;20095;-52
2023/01/13 03:30:52;;;;;;;3.53;3.22;;;1.10;99.90;;;;;;5008743;28;20041;-48
2023/01/13 03:33:24;;;;;;;3.53;3.25;;;1.10;99.90;;;;;;5031756;28;20112;-48
2023/01/13 03:35:56;;;;;;;3.30;3.00;;;1.10;99.90;;;;;;5032482;28;20159;-52
2023/01/13 03:38:34;;;;;;;6.93;3.13;;;1.10;99.90;;;;;;5032442;28;20055;-51
2023/01/13 03:41:47;;;;;;;3.60;3.30;;;1.10;99.90;;;;;;5032422;28;20431;-50
2023/01/13 03:44:22;;;;;;;4.57;3.38;;;1.10;99.90;;;;;;5032371;28;20032;-50
2023/01/13 03:46:57;;;;;;;7.57;4.78;;;1.10;99.90;;;;;;5032131;28;20037;-49
2023/01/13 03:49:28;;;;;;;6.78;3.13;;;1.10;99.90;;;;;;5032333;28;20028;-51
2023/01/13 03:51:57;;;;;;;7.68;3.33;;;1.00;99.90;;;;;;5032400;28;20037;-48
2023/01/13 03:54:27;;;;;;;4.53;3.35;;;1.00;99.90;;;;;;5031767;28;20022;-49
2023/01/13 03:57:01;;;;;;;3.63;3.10;;;1.00;99.90;;;;;;5032167;28;20405;-48
2023/01/13 03:59:34;;;;;;;3.63;3.28;;;1.00;99.90;;;;;;5032165;28;20049;-49
2023/01/13 04:02:18;;;;;;;3.60;3.35;;;1.00;99.90;;;;;;5032202;28;20361;-50
2023/01/13 04:04:53;;;;;;;2.95;2.72;;;1.00;99.90;;;;;;5030754;28;20029;-48
2023/01/13 04:07:53;;;;;;;10.43;3.65;;;1.00;99.90;;;;;;5032017;28;20365;-52
2023/01/13 04:10:26;;;;;;;6.35;3.08;;;1.00;99.90;;;;;;5031968;28;20025;-51
2023/01/13 04:12:59;;;;;;;4.15;3.75;;;1.10;99.90;;;;;;5031976;28;20029;-52
2023/01/13 04:15:31;;;;;;;4.32;3.50;;;1.10;99.90;;;;;;5031982;28;20034;-51
2023/01/13 04:18:21;;;;;;;5.07;3.65;;;1.10;99.90;;;;;;5031969;28;20475;-49
2023/01/13 04:20:49;;;;;;;5.82;3.72;;;1.10;99.90;;;;;;5030746;28;20057;-50
2023/01/13 04:23:16;;;;;;;4.57;3.58;;;1.20;99.90;;;;;;5031823;28;20080;-50
2023/01/13 04:25:43;;;;;;;5.93;3.45;;;1.30;99.90;;;;;;5031791;28;20571;-48
2023/01/13 04:28:10;;;;;;;4.35;3.35;;;1.30;99.90;;;;;;5031817;28;20040;-53
2023/01/13 04:30:37;;;;;;;3.42;3.10;;;1.30;99.90;;;;;;5031755;28;20096;-51
2023/01/13 04:33:04;;;;;;;8.35;3.20;;;1.30;99.90;;;;;;5031760;28;20029;-52
2023/01/13 04:35:30;;;;;;;10.82;3.30;;;1.30;99.90;;;;;;5031798;28;20021;-52
2023/01/13 04:37:56;;;;;;;5.75;3.75;;;1.40;99.90;;;;;;5031700;28;20549;-48
2023/01/13 04:40:22;;;;;;;4.10;3.28;;;1.50;99.90;;;;;;5031867;28;20025;-51
2023/01/13 04:42:47;;;;;;;6.45;3.05;;;1.50;99.90;;;;;;5031611;28;20376;-50
2023/01/13 04:45:13;;;;;;;3.38;3.10;;;1.50;99.90;;;;;;5031480;28;20041;-51
2023/01/13 04:47:40;;;;;;;9.02;3.38;;;1.50;99.90;;;;;;5031593;28;20026;-51
2023/01/13 04:50:07;;;;;;;7.45;3.10;;;1.50;99.90;;;;;;5031799;28;20139;-48
2023/01/13 04:52:33;;;;;;;3.30;3.00;;;1.60;99.90;;;;;;5031578;28;20022;-51
2023/01/13 04:54:59;;;;;;;3.72;3.38;;;1.60;99.90;;;;;;5031614;28;20388;-49
2023/01/13 04:57:24;;;;;;;3.17;2.83;;;1.60;99.90;;;;;;5031457;28;20033;-49
2023/01/13 04:59:50;;;;;;;4.85;3.70;;;1.70;99.90;;;;;;5031561;28;20036;-51
2023/01/13 05:02:18;;;;;;;5.18;3.40;;;1.70;99.90;;;;;;5031611;28;20022;-49
2023/01/13 05:04:47;;;;;;;6.40;2.90;;;1.70;99.90;;;;;;5031531;28;20029;-49
2023/01/13 05:07:15;;;;;;;9.02;2.97;;;1.70;99.90;;;;;;5032222;28;20029;-53
2023/01/13 05:09:41;;;;;;;4.38;3.10;;;1.80;99.90;;;;;;5033950;28;20025;-52
2023/01/13 05:17:36;;;;;;;7.40;3.53;;;1.90;99.90;;;;;;5035015;28;20522;-49
2023/01/13 05:20:03;;;;;;;7.50;3.38;;;1.90;99.90;;;;;;5033719;28;20033;-53
2023/01/13 05:25:24;;;;;;;5.13;3.17;;;1.90;99.90;;;;;;5034795;28;20075;-49
2023/01/13 05:27:59;;;;;;;9.73;4.10;;;1.90;99.90;;;;;;5034798;28;20044;-54
2023/01/13 05:30:29;;;;;;;4.35;3.92;;;1.90;99.90;;;;;;5033694;28;20032;-48
2023/01/13 05:32:55;;;;;;;14.55;4.07;;;2.00;99.90;;;;;;5034714;28;20029;-49
2023/01/13 05:35:21;;;;;;;11.25;3.28;;;1.90;99.90;;;;;;5034684;28;20029;-55
2023/01/13 05:37:47;;;;;;;14.57;5.20;;;1.90;99.90;;;;;;5034850;28;20024;-51
2023/01/13 05:43:19;;;;;;;2.72;2.53;;;1.90;99.90;;;;;;5034856;28;20499;-53
2023/01/13 05:45:51;;;;;;;3.35;3.08;;;1.90;99.90;;;;;;5034317;28;20050;-53
2023/01/13 05:48:19;;;;;;;3.72;3.10;;;1.90;99.90;;;;;;5034436;28;20022;-52
2023/01/13 05:50:46;;;;;;;5.65;4.70;;;1.90;99.90;;;;;;5034576;28;20025;-49
2023/01/13 05:53:12;;;;;;;12.85;6.70;;;2.00;99.90;;;;;;5034330;28;20025;-49
2023/01/13 05:55:41;;;;;;;21.83;6.43;;;1.90;99.90;;;;;;5034260;28;20032;-49
2023/01/13 05:58:08;;;;;;;2.70;2.50;;;2.00;99.90;;;;;;5034460;28;20079;-51
2023/01/13 06:00:34;;;;;;;3.83;3.53;;;2.10;99.90;;;;;;5032908;28;20037;-51
2023/01/13 06:03:00;;;;;;;4.53;3.97;;;2.10;99.90;;;;;;5034188;28;20061;-51
2023/01/13 06:05:26;;;;;;;11.70;5.80;;;2.10;99.90;;;;;;5034192;28;20172;-49
2023/01/13 06:07:59;;;;;;;9.93;5.43;;;2.10;99.90;;;;;;5033976;28;20025;-52
2023/01/13 06:10:25;;;;;;;4.15;3.20;;;2.10;99.90;;;;;;5033970;28;20030;-57
2023/01/13 06:12:51;;;;;;;7.00;3.67;;;2.10;99.90;;;;;;5033799;28;20127;-51
2023/01/13 06:15:17;;;;;;;8.15;2.83;;;2.20;99.90;;;;;;5028966;28;20045;-51
2023/01/13 06:17:43;;;;;;;7.60;3.42;;;2.20;99.90;;;;;;5032628;28;20104;-49
2023/01/13 06:20:10;;;;;;;10.25;4.65;;;2.20;99.90;;;;;;5033117;28;20032;-50
2023/01/13 06:22:38;;;;;;;4.95;3.58;;;2.20;99.90;;;;;;5032320;28;20021;-51
2023/01/13 06:25:29;;;;;;;6.20;4.72;;;2.20;99.90;;;;;;5033049;28;20117;-50
2023/01/13 06:27:57;;;;;;;10.57;5.07;;;2.20;99.90;;;;;;5011968;28;20048;-55
2023/01/13 06:30:25;;;;;;;6.78;4.43;;;2.20;99.90;;;;;;5033538;28;20024;-49
2023/01/13 06:32:57;;;;;;;6.38;3.85;;;2.20;99.90;;;;;;5033098;28;20025;-52
2023/01/13 06:35:27;;;;;;;6.35;4.45;;;2.20;99.90;;;;;;5033355;28;20472;-53
2023/01/13 06:37:55;;;;;;;10.10;3.75;;;2.20;99.90;;;;;;5032997;28;20428;-53
2023/01/13 06:40:21;;;;;;;5.60;3.53;;;2.20;99.90;;;;;;5032893;28;20041;-49
2023/01/13 06:43:32;;;;;;;5.53;3.47;;;2.20;99.90;;;;;;5032970;28;20499;-51
2023/01/13 06:45:34;;;;;;;12.82;3.75;;;2.20;99.90;;;;;;5024974;28;20050;-52
2023/01/13 06:48:00;;;;;;;17.58;7.60;;;2.10;99.90;;;;;;5032715;28;20156;-53
2023/01/13 06:50:26;;;;;;;20.45;4.80;;;2.10;99.90;;;;;;5032130;28;20033;-58
2023/01/13 06:52:52;;;;;;;10.80;7.13;;;2.10;99.90;;;;;;5032750;28;20037;-49
2023/01/13 06:55:18;;;;;;;22.00;11.50;;;2.20;99.90;;;;;;5032777;28;20022;-52
2023/01/13 06:57:55;;;;;;;99.90;36.08;;;2.20;99.90;;;;;;5032694;28;20057;-54
2023/01/13 07:00:22;;;;;;;59.63;23.20;;;2.20;99.90;;;;;;5031797;28;20028;-52
2023/01/13 07:02:47;;;;;;;56.33;23.85;;;2.20;99.90;;;;;;5031891;28;20029;-52
2023/01/13 07:05:14;;;;;;;43.05;20.67;;;2.20;99.90;;;;;;5032338;28;20035;-55
2023/01/13 07:07:40;;;;;;;51.20;28.73;;;2.30;99.90;;;;;;5032577;28;20018;-55
2023/01/13 07:10:08;;;;;;;42.40;21.13;;;2.30;99.90;;;;;;5032764;28;20071;-52
2023/01/13 07:15:23;;;;;;;47.67;24.10;;;2.30;99.90;;;;;;5021754;28;20034;-56
2023/01/13 07:17:48;;;;;;;42.47;22.33;;;2.40;99.90;;;;;;5032393;28;20030;-51
2023/01/13 07:20:15;;;;;;;36.17;20.75;;;2.40;99.90;;;;;;5032369;28;20491;-53
2023/01/13 07:22:41;;;;;;;34.50;20.85;;;2.40;99.90;;;;;;5032155;28;20021;-53
2023/01/13 07:25:07;;;;;;;33.20;18.30;;;2.40;99.90;;;;;;5033048;28;20029;-50
2023/01/13 07:27:33;;;;;;;54.55;30.60;;;2.40;99.90;;;;;;5032650;28;20414;-53
2023/01/13 07:29:58;;;;;;;44.65;24.67;;;2.50;99.90;;;;;;5031599;28;20049;-52
2023/01/13 07:32:24;;;;;;;28.00;14.88;;;2.60;99.90;;;;;;5032374;28;20029;-53
2023/01/13 07:34:50;;;;;;;177.25;89.10;;;2.60;99.90;;;;;;5032072;28;20029;-55
2023/01/13 07:37:15;;;;;;;206.30;101.18;;;2.60;99.90;;;;;;5032220;28;20029;-55
2023/01/13 07:39:41;;;;;;;38.78;21.13;;;2.60;99.90;;;;;;5032067;28;20112;-54
2023/01/13 07:44:52;;;;;;;85.78;47.80;;;2.60;99.90;;;;;;5032092;28;20099;-52
2023/01/13 07:47:22;;;;;;;8.02;6.07;;;2.70;99.90;;;;;;5030676;28;20057;-56
2023/01/13 07:49:47;;;;;;;5.82;4.88;;;2.70;99.90;;;;;;5030505;28;20044;-49
2023/01/13 07:52:13;;;;;;;13.77;5.40;;;2.80;99.90;;;;;;5031793;28;20048;-55
2023/01/13 07:54:39;;;;;;;16.17;7.90;;;2.90;99.90;;;;;;5031603;28;20021;-52
2023/01/13 07:57:04;;;;;;;23.95;14.90;;;3.00;99.90;;;;;;5032755;28;20082;-55
2023/01/13 07:59:30;;;;;;;39.65;19.70;;;3.20;99.90;;;;;;5032338;28;20022;-52
2023/01/13 08:01:56;;;;;;;27.00;15.75;;;3.40;99.90;;;;;;5031772;28;20060;-54
2023/01/13 08:04:21;;;;;;;27.98;16.63;;;3.40;99.90;;;;;;5031909;28;20045;-53
2023/01/13 08:06:48;;;;;;;68.55;48.00;;;3.50;99.90;;;;;;5031512;28;20155;-56
2023/01/13 08:09:13;;;;;;;62.25;43.50;;;3.50;99.90;;;;;;5031603;28;20026;-56
2023/01/13 08:11:39;;;;;;;75.18;46.85;;;3.50;99.90;;;;;;5031486;28;20053;-54
2023/01/13 08:14:05;;;;;;;42.90;22.90;;;3.50;99.90;;;;;;5031709;28;20484;-54
2023/01/13 08:16:33;;;;;;;70.38;42.10;;;3.60;99.90;;;;;;5032089;28;20017;-53
2023/01/13 08:18:58;;;;;;;34.65;21.33;;;3.60;99.90;;;;;;5031732;28;20427;-54
2023/01/13 08:21:24;;;;;;;31.60;20.95;;;3.70;99.90;;;;;;5031871;28;20033;-50
2023/01/13 08:23:50;;;;;;;31.48;20.50;;;3.70;99.90;;;;;;5031361;28;20052;-56
2023/01/13 08:26:17;;;;;;;34.42;20.23;;;3.70;99.90;;;;;;5031088;28;20029;-50
2023/01/13 08:28:44;;;;;;;41.75;22.05;;;3.80;99.90;;;;;;5031106;28;20021;-55
2023/01/13 08:31:12;;;;;;;33.42;21.77;;;3.90;99.90;;;;;;5031349;28;20033;-56
2023/01/13 08:33:38;;;;;;;115.05;68.60;;;3.90;99.90;;;;;;5031499;28;20033;-56
2023/01/13 08:36:06;;;;;;;26.00;17.85;;;4.00;99.90;;;;;;5031506;28;20461;-55
2023/01/13 08:38:33;;;;;;;18.27;12.48;;;4.30;99.90;;;;;;5031334;28;20029;-56
2023/01/13 08:40:59;;;;;;;26.77;17.73;;;4.40;99.90;;;;;;5033382;28;20036;-52
2023/01/13 08:43:25;;;;;;;15.30;8.85;;;4.40;99.90;;;;;;5035346;28;20025;-51
2023/01/13 08:45:59;;;;;;;12.18;5.97;;;4.50;99.90;;;;;;5034954;28;20740;-53
2023/01/13 08:48:26;;;;;;;9.13;6.43;;;4.70;99.90;;;;;;5035212;28;20088;-51
2023/01/13 08:50:52;;;;;;;9.57;6.20;;;4.70;99.90;;;;;;5034997;28;20017;-56
2023/01/13 08:53:18;;;;;;;8.02;5.75;;;4.80;99.90;;;;;;5035335;28;20021;-53
2023/01/13 08:55:45;;;;;;;21.00;8.85;;;4.80;99.90;;;;;;5035079;28;20667;-52
2023/01/13 08:58:11;;;;;;;11.48;9.70;;;4.70;99.90;;;;;;5035270;28;20362;-56
2023/01/13 09:00:37;;;;;;;16.70;7.68;;;4.70;99.90;;;;;;5035113;28;20036;-55
2023/01/13 09:03:03;;;;;;;8.70;5.82;;;4.70;99.90;;;;;;5034819;28;20035;-51
2023/01/13 09:05:29;;;;;;;42.88;16.52;;;4.90;99.90;;;;;;5033867;28;20124;-53
2023/01/13 09:07:55;;;;;;;17.70;8.57;;;5.00;99.90;;;;;;5033992;28;20104;-52
2023/01/13 09:10:21;;;;;;;19.52;7.43;;;5.20;99.90;;;;;;5032851;28;20080;-51
2023/01/13 09:15:31;;;;;;;19.23;6.60;;;5.30;99.90;;;;;;5034680;28;20040;-55
2023/01/13 09:17:56;;;;;;;12.40;7.85;;;5.30;99.90;;;;;;5034684;28;20017;-52
2023/01/13 09:20:22;;;;;;;87.43;33.15;;;5.30;99.90;;;;;;5034875;28;20025;-52
2023/01/13 09:22:48;;;;;;;276.30;107.47;;;5.40;99.90;;;;;;5034512;28;20041;-55
2023/01/13 09:25:13;;;;;;;112.97;45.17;;;5.50;99.90;;;;;;5034558;28;20033;-52
2023/01/13 09:27:39;;;;;;;35.58;17.83;;;5.50;99.90;;;;;;5034439;28;20582;-53
2023/01/13 09:30:06;;;;;;;32.47;15.02;;;5.50;99.90;;;;;;5033374;28;20037;-55
2023/01/13 09:32:31;;;;;;;32.92;15.48;;;5.50;99.90;;;;;;5034286;28;20115;-50
2023/01/13 09:35:00;;;;;;;28.38;15.73;;;5.60;99.90;;;;;;5033103;28;20021;-52
2023/01/13 09:37:30;;;;;;;8.60;5.60;;;5.70;99.90;;;;;;5034445;28;20445;-53
2023/01/13 09:39:56;;;;;;;6.18;4.50;;;5.90;99.90;;;;;;5034515;28;20377;-56
2023/01/13 09:45:51;;;;;;;8.88;5.38;;;6.10;99.90;;;;;;5033835;28;20084;-52
2023/01/13 09:48:30;;;;;;;9.57;5.50;;;6.20;99.90;;;;;;5033027;28;20469;-53
2023/01/13 09:51:13;;;;;;;10.07;7.57;;;6.30;99.90;;;;;;5034137;28;20017;-54
2023/01/13 09:53:44;;;;;;;28.05;9.95;;;6.50;99.90;;;;;;5032059;28;20117;-57
2023/01/13 09:56:10;;;;;;;15.52;7.22;;;6.60;99.90;;;;;;5034178;28;20032;-53
2023/01/13 09:58:36;;;;;;;10.63;5.72;;;6.90;99.90;;;;;;5034120;28;20384;-54
2023/01/13 10:01:30;;;;;;;10.00;6.70;;;7.30;99.90;;;;;;5033704;28;20026;-56
2023/01/13 10:03:56;;;;;;;;;;;7.30;99.90;;;;;;5034433;28;20029;-55
2023/01/13 10:06:37;;;;;;;11.18;6.38;;;7.20;99.90;;;;;;5033732;28;20000;-55
2023/01/13 10:09:04;;;;;;;22.02;5.95;;;7.20;99.90;;;;;;5033826;28;20032;-51
2023/01/13 10:14:39;;;;;;;9.90;5.15;;;7.10;99.90;;;;;;5033929;28;20020;-53
2023/01/13 10:17:33;;;;;;;7.93;5.20;;;7.30;99.90;;;;;;5033821;28;20405;-52
2023/01/13 10:20:11;;;;;;;;;;;7.60;99.90;;;;;;5034137;28;20094;-52
2023/01/13 10:22:51;;;;;;;8.45;4.28;;;7.70;99.90;;;;;;5033440;28;19955;-54
2023/01/13 10:25:35;;;;;;;6.85;4.40;;;7.90;99.90;;;;;;5033585;28;20017;-55
2023/01/13 10:28:07;;;;;;;4.80;3.60;;;8.30;99.90;;;;;;5033486;28;20018;-54
2023/01/13 10:30:37;;;;;;;7.75;3.67;;;8.90;99.90;;;;;;5033224;28;20455;-56
2023/01/13 10:33:09;;;;;;;7.20;4.28;;;9.20;99.90;;;;;;5033002;28;20084;-58
2023/01/13 10:35:53;;;;;;;5.47;3.65;;;9.40;99.90;;;;;;5033026;28;20037;-57
2023/01/13 10:38:46;;;;;;;7.07;4.47;;;9.90;99.90;;;;;;5033397;28;20021;-55
2023/01/13 10:41:15;;;;;;;5.82;4.07;;;10.70;99.90;;;;;;5033087;28;20030;-57
2023/01/13 10:43:57;;;;;;;10.05;6.53;;;12.10;97.70;;;;;;5032595;28;20524;-58
2023/01/13 10:46:22;;;;;;;10.50;6.15;;;13.50;93.20;;;;;;5032922;28;20439;-57
2023/01/13 10:48:57;;;;;;;7.90;3.10;;;14.80;87.00;;;;;;5033003;28;20104;-55
2023/01/13 10:51:42;;;;;;;25.92;12.35;;;15.10;79.10;;;;;;5033100;28;20041;-56
2023/01/13 10:54:11;;;;;;;2.38;2.13;;;14.00;81.60;;;;;;5032964;28;20026;-55
2023/01/13 10:56:42;;;;;;;8.18;4.90;;;12.50;85.40;;;;;;5032802;28;20459;-54
2023/01/13 10:59:27;;;;;;;1.67;1.58;;;11.60;85.30;;;;;;5032854;28;20037;-56
2023/01/13 11:02:15;;;;;;;1.98;1.13;;;10.70;90.00;;;;;;5032785;28;20029;-52
2023/01/13 11:04:53;;;;;;;1.70;1.10;;;10.20;91.90;;;;;;5031705;28;20022;-55
2023/01/13 11:07:30;;;;;;;4.00;1.42;;;9.80;94.30;;;;;;5032657;28;20026;-56
2023/01/13 11:10:08;;;;;;;3.30;1.10;;;9.60;96.00;;;;;;5032694;28;20022;-56
2023/01/13 11:12:42;;;;;;;2.70;2.35;;;9.60;98.10;;;;;;5032243;28;20026;-56
2023/01/13 11:15:15;;;;;;;2.13;1.92;;;9.60;97.70;;;;;;5032640;28;20108;-56
2023/01/13 11:18:22;;;;;;;6.95;3.60;;;9.60;98.70;;;;;;5032458;28;20079;-51
2023/01/13 11:20:50;;;;;;;5.72;4.75;;;9.70;99.50;;;;;;5032364;28;20021;-55
2023/01/13 11:23:36;;;;;;;4.03;3.35;;;9.80;99.40;;;;;;5032513;28;20422;-52
2023/01/13 11:26:15;;;;;;;25.50;15.02;;;9.60;99.90;;;;;;5032259;28;20061;-56
2023/01/13 11:28:59;;;;;;;9.75;8.60;;;9.60;99.90;;;;;;5032123;28;20022;-57
2023/01/13 11:31:59;;;;;;;4.50;2.92;;;9.50;99.90;;;;;;5032167;28;20021;-56
2023/01/13 11:34:40;;;;;;;5.90;2.53;;;9.60;99.90;;;;;;5028177;28;20106;-53
2023/01/13 11:37:25;;;;;;;1.67;1.58;;;9.60;99.90;;;;;;5031933;28;20071;-57
2023/01/13 11:40:24;;;;;;;2.03;1.70;;;9.70;99.80;;;;;;5032952;28;20128;-57
2023/01/13 11:43:10;;;;;;;3.55;1.63;;;9.90;99.90;;;;;;5030460;28;20667;-57
2023/01/13 11:45:54;;;;;;;2.47;2.00;;;10.10;99.90;;;;;;5031555;28;20116;-57
2023/01/13 11:48:25;;;;;;;2.78;2.08;;;10.50;99.90;;;;;;5031982;28;20022;-56
2023/01/13 11:51:13;;;;;;;2.40;2.05;;;10.50;98.40;;;;;;5031726;28;20488;-57
2023/01/13 11:53:56;;;;;;;4.13;2.10;;;10.80;97.60;;;;;;5031725;28;20029;-54
2023/01/13 11:56:34;;;;;;;3.25;2.60;;;11.00;97.60;;;;;;5031774;28;20021;-54
2023/01/13 11:59:06;;;;;;;4.55;2.40;;;11.00;98.20;;;;;;5031796;28;20032;-51
2023/01/13 12:02:00;;;;;;;2.20;2.00;;;11.00;97.20;;;;;;5031652;28;20033;-57
2023/01/13 12:04:34;;;;;;;3.30;2.28;;;11.10;95.70;;;;;;5030426;28;20480;-53
2023/01/13 12:07:18;;;;;;;3.17;2.53;;;11.10;94.70;;;;;;5031781;28;20461;-56
2023/01/13 12:10:09;;;;;;;5.85;2.50;;;11.20;94.70;;;;;;5031555;28;20028;-56
2023/01/13 12:12:55;;;;;;;2.03;1.85;;;11.30;94.50;;;;;;5031485;28;20028;-56
2023/01/13 12:15:24;;;;;;;37.33;14.25;;;11.40;95.30;;;;;;5031227;28;20025;-56
2023/01/13 12:18:07;;;;;;;41.05;16.58;;;11.40;95.10;;;;;;5031463;28;20388;-56
2023/01/13 12:20:36;;;;;;;10.45;5.68;;;11.50;95.10;;;;;;5031563;28;20598;-57
2023/01/13 12:23:05;;;;;;;19.25;8.77;;;12.00;93.80;;;;;;5031600;28;20029;-56
2023/01/13 12:25:41;;;;;;;7.72;5.00;;;12.70;92.50;;;;;;5031219;28;20017;-57
2023/01/13 12:28:20;;;;;;;4.60;3.35;;;13.80;90.30;;;;;;5031544;28;20022;-56
2023/01/13 12:30:53;;;;;;;4.15;2.30;;;14.50;89.70;;;;;;5031419;28;20029;-57
2023/01/13 12:33:37;;;;;;;3.95;3.03;;;15.50;83.30;;;;;;5031521;28;20022;-54
2023/01/13 12:36:21;;;;;;;4.60;2.85;;;16.60;78.40;;;;;;5031551;28;20037;-57
2023/01/13 12:39:16;;;;;;;3.00;2.45;;;17.90;70.50;;;;;;5031194;28;20384;-56
2023/01/13 12:44:36;;;;;;;4.80;2.67;;;18.70;63.40;;;;;;5031300;28;20060;-55
2023/01/13 12:47:02;;;;;;;4.68;3.58;;;19.50;58.80;;;;;;5031295;28;20017;-56
2023/01/13 12:49:31;;;;;;;3.50;1.77;;;19.90;58.80;;;;;;5031166;28;20053;-57
2023/01/13 12:52:06;;;;;;;5.68;1.67;;;20.00;57.60;;;;;;5031357;28;20022;-56
2023/01/13 12:54:42;;;;;;;3.05;1.60;;;20.00;57.50;;;;;;5031035;28;20049;-56
2023/01/13 12:57:24;;;;;;;1.48;1.38;;;18.90;56.90;;;;;;5031273;28;20026;-55
2023/01/13 12:59:59;;;;;;;10.18;5.07;;;19.00;55.70;;;;;;5029818;28;20037;-56
2023/01/13 13:02:32;;;;;;;4.10;2.20;;;17.90;57.40;;;;;;5031420;28;20369;-56
2023/01/13 13:05:20;;;;;;;3.00;2.13;;;17.10;59.00;;;;;;5029833;28;20029;-57
2023/01/13 13:07:51;;;;;;;5.82;1.88;;;17.90;60.60;;;;;;5019357;28;20037;-58
2023/01/13 13:10:32;;;;;;;2.80;1.90;;;16.70;59.60;;;;;;5031102;28;20481;-58
2023/01/13 13:13:16;;;;;;;4.03;1.50;;;16.00;60.70;;;;;;5031164;28;20033;-58
2023/01/13 13:15:44;;;;;;;1.58;1.48;;;15.30;62.80;;;;;;5031006;28;20052;-57
2023/01/13 13:18:15;;;;;;;2.58;2.38;;;14.60;65.00;;;;;;5031165;28;20021;-57
2023/01/13 13:20:56;;;;;;;1.77;1.67;;;13.20;68.50;;;;;;5030887;28;20026;-57
2023/01/13 13:23:26;;;;;;;3.42;2.10;;;12.80;66.10;;;;;;5030834;28;20025;-57
2023/01/13 13:26:01;;;;;;;7.40;2.50;;;12.20;71.10;;;;;;5046084;28;20109;-58
2023/01/13 13:28:32;;;;;;;5.15;3.15;;;11.70;74.00;;;;;;5033452;28;20460;-57
2023/01/13 13:31:18;;;;;;;1.95;1.77;;;11.60;76.00;;;;;;5034510;28;20518;-58
2023/01/13 13:33:58;;;;;;;3.42;1.50;;;11.50;75.00;;;;;;5034139;28;20037;-57
2023/01/13 13:36:37;;;;;;;2.40;1.80;;;11.40;75.30;;;;;;5034263;28;20034;-56
2023/01/13 13:48:26;;;;;;;4.63;3.13;;;10.20;98.80;;;;;;5034337;28;20064;-56
2023/01/13 13:50:57;;;;;;;2.00;1.80;;;9.90;98.60;;;;;;5034106;28;20026;-56
2023/01/13 13:53:29;;;;;;;1.60;1.50;;;9.90;99.00;;;;;;5034223;28;20457;-57
2023/01/13 13:55:59;;;;;;;1.55;1.45;;;9.90;99.90;;;;;;5034154;28;20441;-57
2023/01/13 13:58:26;;;;;;;1.85;1.52;;;10.00;99.90;;;;;;5033940;28;20030;-57
2023/01/13 14:00:53;;;;;;;1.70;1.60;;;10.00;99.30;;;;;;5034019;28;20495;-54
2023/01/13 14:03:30;;;;;;;2.35;1.50;;;10.00;99.90;;;;;;5033816;28;20499;-57
2023/01/13 14:06:01;;;;;;;4.55;1.88;;;10.10;99.90;;;;;;5033770;28;20022;-58